sensor_id;sensor_type;location;lat;lon;timestamp;P1;durP1;ratioP1;P2;durP2;ratioP2
32639;SDS011;19049;52.524;11.468;2023-01-10T00:01:28;4.93;;;3.03;;
32639;SDS011;19049;52.524;11.468;2023-01-10T00:04:03;5.40;;;2.90;;
32639;SDS011;19049;52.524;11.468;2023-01-10T00:07:15;7.23;;;3.40;;
32639;SDS011;19049;52.524;11.468;2023-01-10T00:09:41;4.97;;;3.23;;
32639;SDS011;19049;52.524;11.468;2023-01-10T00:12:07;4.60;;;3.40;;
32639;SDS011;19049;52.524;11.468;2023-01-10T00:18:09;4.60;;;3.50;;
32639;SDS011;19049;52.524;11.468;2023-01-10T00:20:34;6.37;;;4.10;;
32639;SDS011;19049;52.524;11.468;2023-01-10T00:23:39;8.67;;;5.30;;
32639;SDS011;19049;52.524;11.468;2023-01-10T00:26:31;7.00;;;4.03;;
32639;SDS011;19049;52.524;11.468;2023-01-10T00:29:21;6.10;;;4.47;;
32639;SDS011;19049;52.524;11.468;2023-01-10T00:31:57;6.37;;;4.20;;
32639;SDS011;19049;52.524;11.468;2023-01-10T00:34:23;6.33;;;4.57;;
32639;SDS011;19049;52.524;11.468;2023-01-10T00:37:09;6.57;;;4.80;;
32639;SDS011;19049;52.524;11.468;2023-01-10T00:39:57;7.97;;;5.40;;
32639;SDS011;19049;52.524;11.468;2023-01-10T00:42:30;10.10;;;5.70;;
32639;SDS011;19049;52.524;11.468;2023-01-10T00:45:14;11.27;;;6.30;;
32639;SDS011;19049;52.524;11.468;2023-01-10T00:47:40;9.37;;;5.93;;
32639;SDS011;19049;52.524;11.468;2023-01-10T00:50:06;12.47;;;6.17;;
32639;SDS011;19049;52.524;11.468;2023-01-10T00:52:35;10.17;;;6.27;;
32639;SDS011;19049;52.524;11.468;2023-01-10T00:55:00;11.50;;;6.90;;
32639;SDS011;19049;52.524;11.468;2023-01-10T00:57:26;12.67;;;6.50;;
32639;SDS011;19049;52.524;11.468;2023-01-10T00:59:51;8.73;;;5.70;;
32639;SDS011;19049;52.524;11.468;2023-01-10T01:02:17;9.67;;;6.60;;
32639;SDS011;19049;52.524;11.468;2023-01-10T01:04:48;13.00;;;7.10;;
32639;SDS011;19049;52.524;11.468;2023-01-10T01:07:14;10.33;;;6.43;;
32639;SDS011;19049;52.524;11.468;2023-01-10T01:09:42;9.67;;;6.67;;
32639;SDS011;19049;52.524;11.468;2023-01-10T01:12:26;8.50;;;6.10;;
32639;SDS011;19049;52.524;11.468;2023-01-10T01:14:59;10.50;;;6.53;;
32639;SDS011;19049;52.524;11.468;2023-01-10T01:17:25;14.47;;;6.90;;
32639;SDS011;19049;52.524;11.468;2023-01-10T01:19:50;11.87;;;6.40;;
32639;SDS011;19049;52.524;11.468;2023-01-10T01:22:26;11.57;;;6.53;;
32639;SDS011;19049;52.524;11.468;2023-01-10T01:24:57;12.13;;;7.03;;
32639;SDS011;19049;52.524;11.468;2023-01-10T01:27:24;14.93;;;6.50;;
32639;SDS011;19049;52.524;11.468;2023-01-10T01:29:50;12.47;;;6.33;;
32639;SDS011;19049;52.524;11.468;2023-01-10T01:32:36;13.63;;;6.73;;
32639;SDS011;19049;52.524;11.468;2023-01-10T01:35:06;9.03;;;6.23;;
32639;SDS011;19049;52.524;11.468;2023-01-10T01:37:35;11.77;;;6.60;;
32639;SDS011;19049;52.524;11.468;2023-01-10T01:40:00;12.57;;;5.87;;
32639;SDS011;19049;52.524;11.468;2023-01-10T01:42:32;11.70;;;6.27;;
32639;SDS011;19049;52.524;11.468;2023-01-10T01:47:34;12.97;;;6.17;;
32639;SDS011;19049;52.524;11.468;2023-01-10T01:50:13;13.77;;;6.33;;
32639;SDS011;19049;52.524;11.468;2023-01-10T01:52:49;10.93;;;5.90;;
32639;SDS011;19049;52.524;11.468;2023-01-10T01:55:21;11.90;;;6.17;;
32639;SDS011;19049;52.524;11.468;2023-01-10T01:57:53;13.03;;;6.43;;
32639;SDS011;19049;52.524;11.468;2023-01-10T02:00:23;13.53;;;6.17;;
32639;SDS011;19049;52.524;11.468;2023-01-10T02:02:50;11.80;;;6.57;;
32639;SDS011;19049;52.524;11.468;2023-01-10T02:05:19;10.60;;;6.13;;
32639;SDS011;19049;52.524;11.468;2023-01-10T02:07:50;11.57;;;6.27;;
32639;SDS011;19049;52.524;11.468;2023-01-10T02:13:18;10.70;;;6.07;;
32639;SDS011;19049;52.524;11.468;2023-01-10T02:15:47;9.20;;;5.43;;
32639;SDS011;19049;52.524;11.468;2023-01-10T02:18:13;13.67;;;7.17;;
32639;SDS011;19049;52.524;11.468;2023-01-10T02:20:50;13.23;;;6.77;;
32639;SDS011;19049;52.524;11.468;2023-01-10T02:26:18;9.57;;;5.57;;
32639;SDS011;19049;52.524;11.468;2023-01-10T02:37:18;11.57;;;4.80;;
32639;SDS011;19049;52.524;11.468;2023-01-10T02:43:19;11.30;;;5.10;;
32639;SDS011;19049;52.524;11.468;2023-01-10T02:46:01;10.63;;;5.07;;
32639;SDS011;19049;52.524;11.468;2023-01-10T02:48:51;16.30;;;6.43;;
32639;SDS011;19049;52.524;11.468;2023-01-10T02:51:25;9.70;;;5.60;;
32639;SDS011;19049;52.524;11.468;2023-01-10T02:53:55;11.33;;;5.77;;
32639;SDS011;19049;52.524;11.468;2023-01-10T03:07:45;14.03;;;7.30;;
32639;SDS011;19049;52.524;11.468;2023-01-10T03:13:11;14.87;;;6.83;;
32639;SDS011;19049;52.524;11.468;2023-01-10T03:15:46;14.77;;;7.97;;
32639;SDS011;19049;52.524;11.468;2023-01-10T03:18:22;10.53;;;6.47;;
32639;SDS011;19049;52.524;11.468;2023-01-10T03:20:52;16.20;;;7.70;;
32639;SDS011;19049;52.524;11.468;2023-01-10T03:23:22;13.63;;;7.17;;
32639;SDS011;19049;52.524;11.468;2023-01-10T03:25:52;13.90;;;7.13;;
32639;SDS011;19049;52.524;11.468;2023-01-10T03:29:02;12.13;;;6.80;;
32639;SDS011;19049;52.524;11.468;2023-01-10T03:31:22;14.37;;;6.70;;
32639;SDS011;19049;52.524;11.468;2023-01-10T03:33:56;15.07;;;6.43;;
32639;SDS011;19049;52.524;11.468;2023-01-10T03:41:38;11.03;;;6.67;;
32639;SDS011;19049;52.524;11.468;2023-01-10T03:44:11;16.90;;;8.30;;
32639;SDS011;19049;52.524;11.468;2023-01-10T03:50:06;15.83;;;7.60;;
32639;SDS011;19049;52.524;11.468;2023-01-10T03:52:36;12.43;;;6.57;;
32639;SDS011;19049;52.524;11.468;2023-01-10T03:55:03;10.53;;;5.90;;
32639;SDS011;19049;52.524;11.468;2023-01-10T03:57:33;13.60;;;6.83;;
32639;SDS011;19049;52.524;11.468;2023-01-10T04:00:01;13.33;;;6.50;;
32639;SDS011;19049;52.524;11.468;2023-01-10T04:02:30;11.67;;;6.10;;
32639;SDS011;19049;52.524;11.468;2023-01-10T04:04:58;10.43;;;5.93;;
32639;SDS011;19049;52.524;11.468;2023-01-10T04:07:34;10.10;;;6.80;;
32639;SDS011;19049;52.524;11.468;2023-01-10T04:10:06;10.87;;;6.23;;
32639;SDS011;19049;52.524;11.468;2023-01-10T04:13:14;14.23;;;5.83;;
32639;SDS011;19049;52.524;11.468;2023-01-10T04:15:39;10.90;;;5.87;;
32639;SDS011;19049;52.524;11.468;2023-01-10T04:18:10;11.70;;;6.93;;
32639;SDS011;19049;52.524;11.468;2023-01-10T04:20:39;13.60;;;7.00;;
32639;SDS011;19049;52.524;11.468;2023-01-10T04:23:07;12.37;;;7.10;;
32639;SDS011;19049;52.524;11.468;2023-01-10T04:25:35;15.13;;;7.67;;
32639;SDS011;19049;52.524;11.468;2023-01-10T04:28:01;14.47;;;7.33;;
32639;SDS011;19049;52.524;11.468;2023-01-10T04:30:27;14.50;;;7.60;;
32639;SDS011;19049;52.524;11.468;2023-01-10T04:33:01;12.30;;;7.20;;
32639;SDS011;19049;52.524;11.468;2023-01-10T04:35:27;13.30;;;7.60;;
32639;SDS011;19049;52.524;11.468;2023-01-10T04:37:54;11.20;;;7.30;;
32639;SDS011;19049;52.524;11.468;2023-01-10T04:40:28;11.83;;;7.57;;
32639;SDS011;19049;52.524;11.468;2023-01-10T04:42:53;12.53;;;6.90;;
32639;SDS011;19049;52.524;11.468;2023-01-10T04:48:15;11.17;;;6.67;;
32639;SDS011;19049;52.524;11.468;2023-01-10T04:50:47;12.40;;;6.63;;
32639;SDS011;19049;52.524;11.468;2023-01-10T04:53:19;10.67;;;6.87;;
32639;SDS011;19049;52.524;11.468;2023-01-10T04:55:48;11.20;;;7.70;;
32639;SDS011;19049;52.524;11.468;2023-01-10T04:58:16;11.23;;;6.97;;
32639;SDS011;19049;52.524;11.468;2023-01-10T05:00:49;12.23;;;7.60;;
32639;SDS011;19049;52.524;11.468;2023-01-10T05:03:16;11.37;;;6.87;;
32639;SDS011;19049;52.524;11.468;2023-01-10T05:06:02;12.73;;;7.47;;
32639;SDS011;19049;52.524;11.468;2023-01-10T05:08:29;12.03;;;7.80;;
32639;SDS011;19049;52.524;11.468;2023-01-10T05:10:55;20.70;;;10.00;;
32639;SDS011;19049;52.524;11.468;2023-01-10T05:13:22;12.23;;;8.50;;
32639;SDS011;19049;52.524;11.468;2023-01-10T05:15:49;15.03;;;9.60;;
32639;SDS011;19049;52.524;11.468;2023-01-10T05:18:19;14.53;;;8.77;;
32639;SDS011;19049;52.524;11.468;2023-01-10T05:20:46;15.67;;;9.73;;
32639;SDS011;19049;52.524;11.468;2023-01-10T05:23:19;14.50;;;7.93;;
32639;SDS011;19049;52.524;11.468;2023-01-10T05:25:55;11.87;;;7.57;;
32639;SDS011;19049;52.524;11.468;2023-01-10T05:28:21;14.93;;;8.67;;
32639;SDS011;19049;52.524;11.468;2023-01-10T05:30:49;14.10;;;7.63;;
32639;SDS011;19049;52.524;11.468;2023-01-10T05:33:23;11.03;;;6.47;;
32639;SDS011;19049;52.524;11.468;2023-01-10T05:35:48;7.87;;;5.90;;
32639;SDS011;19049;52.524;11.468;2023-01-10T05:38:14;12.90;;;6.57;;
32639;SDS011;19049;52.524;11.468;2023-01-10T05:40:39;7.57;;;5.90;;
32639;SDS011;19049;52.524;11.468;2023-01-10T05:43:05;9.60;;;5.87;;
32639;SDS011;19049;52.524;11.468;2023-01-10T05:45:31;10.17;;;6.23;;
32639;SDS011;19049;52.524;11.468;2023-01-10T05:47:58;8.97;;;5.80;;
32639;SDS011;19049;52.524;11.468;2023-01-10T05:50:26;12.23;;;6.27;;
32639;SDS011;19049;52.524;11.468;2023-01-10T05:52:55;8.87;;;5.67;;
32639;SDS011;19049;52.524;11.468;2023-01-10T05:55:38;9.07;;;5.97;;
32639;SDS011;19049;52.524;11.468;2023-01-10T05:58:50;11.67;;;6.33;;
32639;SDS011;19049;52.524;11.468;2023-01-10T06:02:45;10.17;;;6.50;;
32639;SDS011;19049;52.524;11.468;2023-01-10T06:08:45;9.40;;;6.10;;
32639;SDS011;19049;52.524;11.468;2023-01-10T06:14:44;11.53;;;6.00;;
32639;SDS011;19049;52.524;11.468;2023-01-10T06:20:40;10.10;;;6.23;;
32639;SDS011;19049;52.524;11.468;2023-01-10T06:29:24;8.70;;;5.03;;
32639;SDS011;19049;52.524;11.468;2023-01-10T06:32:08;10.43;;;6.07;;
32639;SDS011;19049;52.524;11.468;2023-01-10T06:34:33;11.33;;;5.30;;
32639;SDS011;19049;52.524;11.468;2023-01-10T06:37:02;10.13;;;5.17;;
32639;SDS011;19049;52.524;11.468;2023-01-10T06:39:27;10.87;;;5.30;;
32639;SDS011;19049;52.524;11.468;2023-01-10T06:41:57;9.07;;;5.03;;
32639;SDS011;19049;52.524;11.468;2023-01-10T06:44:47;8.27;;;3.93;;
32639;SDS011;19049;52.524;11.468;2023-01-10T06:47:17;10.87;;;5.17;;
32639;SDS011;19049;52.524;11.468;2023-01-10T06:49:57;7.93;;;4.53;;
32639;SDS011;19049;52.524;11.468;2023-01-10T06:52:25;8.43;;;4.80;;
32639;SDS011;19049;52.524;11.468;2023-01-10T06:54:56;8.37;;;4.80;;
32639;SDS011;19049;52.524;11.468;2023-01-10T06:57:53;15.03;;;6.20;;
32639;SDS011;19049;52.524;11.468;2023-01-10T07:00:20;13.00;;;6.23;;
32639;SDS011;19049;52.524;11.468;2023-01-10T07:02:49;9.83;;;5.60;;
32639;SDS011;19049;52.524;11.468;2023-01-10T07:05:15;10.83;;;5.27;;
32639;SDS011;19049;52.524;11.468;2023-01-10T07:07:41;11.27;;;5.00;;
32639;SDS011;19049;52.524;11.468;2023-01-10T07:10:07;9.37;;;5.23;;
32639;SDS011;19049;52.524;11.468;2023-01-10T07:12:33;8.60;;;5.03;;
32639;SDS011;19049;52.524;11.468;2023-01-10T07:15:01;10.23;;;5.20;;
32639;SDS011;19049;52.524;11.468;2023-01-10T07:17:34;8.57;;;4.70;;
32639;SDS011;19049;52.524;11.468;2023-01-10T07:20:40;9.43;;;4.30;;
32639;SDS011;19049;52.524;11.468;2023-01-10T07:23:52;7.87;;;3.87;;
32639;SDS011;19049;52.524;11.468;2023-01-10T07:26:18;8.03;;;3.67;;
32639;SDS011;19049;52.524;11.468;2023-01-10T07:29:27;10.07;;;3.97;;
32639;SDS011;19049;52.524;11.468;2023-01-10T07:34:52;5.13;;;3.73;;
32639;SDS011;19049;52.524;11.468;2023-01-10T07:45:28;10.87;;;4.90;;
32639;SDS011;19049;52.524;11.468;2023-01-10T07:47:56;9.20;;;5.50;;
32639;SDS011;19049;52.524;11.468;2023-01-10T07:50:34;7.60;;;4.50;;
32639;SDS011;19049;52.524;11.468;2023-01-10T07:53:23;9.93;;;4.60;;
32639;SDS011;19049;52.524;11.468;2023-01-10T07:58:58;8.20;;;3.80;;
32639;SDS011;19049;52.524;11.468;2023-01-10T08:01:25;5.90;;;3.03;;
32639;SDS011;19049;52.524;11.468;2023-01-10T08:03:50;9.40;;;4.30;;
32639;SDS011;19049;52.524;11.468;2023-01-10T08:06:16;8.97;;;4.00;;
32639;SDS011;19049;52.524;11.468;2023-01-10T08:08:54;9.67;;;3.93;;
32639;SDS011;19049;52.524;11.468;2023-01-10T08:11:41;9.97;;;4.10;;
32639;SDS011;19049;52.524;11.468;2023-01-10T08:17:24;8.73;;;4.00;;
32639;SDS011;19049;52.524;11.468;2023-01-10T08:19:52;8.67;;;3.70;;
32639;SDS011;19049;52.524;11.468;2023-01-10T08:22:18;8.13;;;3.50;;
32639;SDS011;19049;52.524;11.468;2023-01-10T08:25:45;6.30;;;3.43;;
32639;SDS011;19049;52.524;11.468;2023-01-10T08:28:13;8.57;;;3.63;;
32639;SDS011;19049;52.524;11.468;2023-01-10T08:30:45;12.00;;;3.97;;
32639;SDS011;19049;52.524;11.468;2023-01-10T08:33:22;8.00;;;3.63;;
32639;SDS011;19049;52.524;11.468;2023-01-10T08:35:50;9.17;;;3.70;;
32639;SDS011;19049;52.524;11.468;2023-01-10T08:38:18;11.00;;;3.20;;
32639;SDS011;19049;52.524;11.468;2023-01-10T08:41:10;9.27;;;3.90;;
32639;SDS011;19049;52.524;11.468;2023-01-10T08:43:37;8.47;;;3.30;;
32639;SDS011;19049;52.524;11.468;2023-01-10T08:46:04;7.67;;;3.03;;
32639;SDS011;19049;52.524;11.468;2023-01-10T08:48:33;6.23;;;2.60;;
32639;SDS011;19049;52.524;11.468;2023-01-10T08:51:03;9.57;;;2.50;;
32639;SDS011;19049;52.524;11.468;2023-01-10T08:53:33;6.47;;;2.27;;
32639;SDS011;19049;52.524;11.468;2023-01-10T08:56:07;8.47;;;2.93;;
32639;SDS011;19049;52.524;11.468;2023-01-10T08:58:37;6.80;;;3.03;;
32639;SDS011;19049;52.524;11.468;2023-01-10T09:01:26;8.27;;;3.40;;
32639;SDS011;19049;52.524;11.468;2023-01-10T09:03:54;6.80;;;2.90;;
32639;SDS011;19049;52.524;11.468;2023-01-10T09:06:19;11.27;;;3.30;;
32639;SDS011;19049;52.524;11.468;2023-01-10T09:08:45;6.33;;;2.90;;
32639;SDS011;19049;52.524;11.468;2023-01-10T09:11:13;7.40;;;3.17;;
32639;SDS011;19049;52.524;11.468;2023-01-10T09:13:51;9.80;;;3.20;;
32639;SDS011;19049;52.524;11.468;2023-01-10T09:16:19;8.03;;;3.33;;
32639;SDS011;19049;52.524;11.468;2023-01-10T09:18:44;8.77;;;3.13;;
32639;SDS011;19049;52.524;11.468;2023-01-10T09:21:15;8.10;;;3.07;;
32639;SDS011;19049;52.524;11.468;2023-01-10T09:23:41;9.30;;;3.70;;
32639;SDS011;19049;52.524;11.468;2023-01-10T09:26:10;9.53;;;3.17;;
32639;SDS011;19049;52.524;11.468;2023-01-10T09:28:38;8.33;;;3.30;;
32639;SDS011;19049;52.524;11.468;2023-01-10T09:31:06;10.70;;;3.27;;
32639;SDS011;19049;52.524;11.468;2023-01-10T09:33:33;10.63;;;3.57;;
32639;SDS011;19049;52.524;11.468;2023-01-10T09:36:11;9.60;;;3.80;;
32639;SDS011;19049;52.524;11.468;2023-01-10T09:38:37;7.77;;;3.20;;
32639;SDS011;19049;52.524;11.468;2023-01-10T09:51:37;11.33;;;3.77;;
32639;SDS011;19049;52.524;11.468;2023-01-10T09:54:17;7.97;;;3.37;;
32639;SDS011;19049;52.524;11.468;2023-01-10T09:56:55;7.70;;;3.50;;
32639;SDS011;19049;52.524;11.468;2023-01-10T09:59:34;5.57;;;2.77;;
32639;SDS011;19049;52.524;11.468;2023-01-10T10:05:32;8.60;;;3.47;;
32639;SDS011;19049;52.524;11.468;2023-01-10T10:08:01;8.87;;;3.33;;
32639;SDS011;19049;52.524;11.468;2023-01-10T10:10:51;5.87;;;2.67;;
32639;SDS011;19049;52.524;11.468;2023-01-10T10:13:39;7.57;;;3.33;;
32639;SDS011;19049;52.524;11.468;2023-01-10T10:19:16;8.80;;;3.47;;
32639;SDS011;19049;52.524;11.468;2023-01-10T10:21:58;10.70;;;3.80;;
32639;SDS011;19049;52.524;11.468;2023-01-10T10:24:40;8.17;;;3.27;;
32639;SDS011;19049;52.524;11.468;2023-01-10T10:27:36;8.13;;;4.63;;
32639;SDS011;19049;52.524;11.468;2023-01-10T10:38:07;8.63;;;4.30;;
32639;SDS011;19049;52.524;11.468;2023-01-10T10:40:46;9.83;;;4.43;;
32639;SDS011;19049;52.524;11.468;2023-01-10T10:43:18;10.00;;;4.70;;
32639;SDS011;19049;52.524;11.468;2023-01-10T10:46:02;11.63;;;5.00;;
32639;SDS011;19049;52.524;11.468;2023-01-10T10:51:28;10.53;;;4.80;;
32639;SDS011;19049;52.524;11.468;2023-01-10T10:54:03;9.13;;;4.70;;
32639;SDS011;19049;52.524;11.468;2023-01-10T10:56:34;9.90;;;5.10;;
32639;SDS011;19049;52.524;11.468;2023-01-10T10:59:02;11.80;;;5.17;;
32639;SDS011;19049;52.524;11.468;2023-01-10T11:01:28;13.83;;;4.60;;
32639;SDS011;19049;52.524;11.468;2023-01-10T11:03:58;11.87;;;5.07;;
32639;SDS011;19049;52.524;11.468;2023-01-10T11:06:27;10.60;;;4.00;;
32639;SDS011;19049;52.524;11.468;2023-01-10T11:09:04;11.27;;;5.20;;
32639;SDS011;19049;52.524;11.468;2023-01-10T11:11:37;8.43;;;4.50;;
32639;SDS011;19049;52.524;11.468;2023-01-10T11:14:09;10.43;;;5.67;;
32639;SDS011;19049;52.524;11.468;2023-01-10T11:16:39;10.27;;;4.70;;
32639;SDS011;19049;52.524;11.468;2023-01-10T11:21:48;7.00;;;4.00;;
32639;SDS011;19049;52.524;11.468;2023-01-10T11:27:24;11.87;;;5.13;;
32639;SDS011;19049;52.524;11.468;2023-01-10T11:29:57;8.40;;;4.50;;
32639;SDS011;19049;52.524;11.468;2023-01-10T11:32:30;7.97;;;4.00;;
32639;SDS011;19049;52.524;11.468;2023-01-10T11:35:02;9.27;;;3.73;;
32639;SDS011;19049;52.524;11.468;2023-01-10T11:37:43;9.90;;;4.37;;
32639;SDS011;19049;52.524;11.468;2023-01-10T11:40:31;9.90;;;4.67;;
32639;SDS011;19049;52.524;11.468;2023-01-10T11:43:00;9.87;;;3.87;;
32639;SDS011;19049;52.524;11.468;2023-01-10T11:46:11;12.43;;;4.80;;
32639;SDS011;19049;52.524;11.468;2023-01-10T11:48:50;8.93;;;4.30;;
32639;SDS011;19049;52.524;11.468;2023-01-10T11:51:35;6.83;;;3.93;;
32639;SDS011;19049;52.524;11.468;2023-01-10T11:54:11;10.03;;;4.40;;
32639;SDS011;19049;52.524;11.468;2023-01-10T11:56:57;8.70;;;4.53;;
32639;SDS011;19049;52.524;11.468;2023-01-10T11:59:27;8.50;;;4.60;;
32639;SDS011;19049;52.524;11.468;2023-01-10T12:02:07;8.97;;;5.10;;
32639;SDS011;19049;52.524;11.468;2023-01-10T12:04:44;10.90;;;4.43;;
32639;SDS011;19049;52.524;11.468;2023-01-10T12:07:13;12.57;;;5.97;;
32639;SDS011;19049;52.524;11.468;2023-01-10T12:09:53;8.47;;;4.90;;
32639;SDS011;19049;52.524;11.468;2023-01-10T12:12:27;11.60;;;4.70;;
32639;SDS011;19049;52.524;11.468;2023-01-10T12:14:55;9.70;;;4.83;;
32639;SDS011;19049;52.524;11.468;2023-01-10T12:17:28;13.10;;;5.47;;
32639;SDS011;19049;52.524;11.468;2023-01-10T12:20:00;8.53;;;4.90;;
32639;SDS011;19049;52.524;11.468;2023-01-10T12:22:32;9.00;;;4.87;;
32639;SDS011;19049;52.524;11.468;2023-01-10T12:27:56;6.97;;;4.50;;
32639;SDS011;19049;52.524;11.468;2023-01-10T12:30:35;7.70;;;4.43;;
32639;SDS011;19049;52.524;11.468;2023-01-10T12:33:13;8.87;;;4.80;;
32639;SDS011;19049;52.524;11.468;2023-01-10T12:35:47;7.93;;;4.37;;
32639;SDS011;19049;52.524;11.468;2023-01-10T12:41:27;8.33;;;4.37;;
32639;SDS011;19049;52.524;11.468;2023-01-10T12:44:21;10.53;;;3.93;;
32639;SDS011;19049;52.524;11.468;2023-01-10T12:52:21;8.27;;;4.40;;
32639;SDS011;19049;52.524;11.468;2023-01-10T12:55:11;6.67;;;4.40;;
32639;SDS011;19049;52.524;11.468;2023-01-10T12:57:38;5.87;;;4.23;;
32639;SDS011;19049;52.524;11.468;2023-01-10T13:00:14;8.40;;;4.27;;
32639;SDS011;19049;52.524;11.468;2023-01-10T13:02:49;11.40;;;4.87;;
32639;SDS011;19049;52.524;11.468;2023-01-10T13:08:24;10.73;;;4.50;;
32639;SDS011;19049;52.524;11.468;2023-01-10T13:17:50;11.10;;;4.37;;
32639;SDS011;19049;52.524;11.468;2023-01-10T13:20:26;10.90;;;4.20;;
32639;SDS011;19049;52.524;11.468;2023-01-10T13:23:11;8.17;;;3.90;;
32639;SDS011;19049;52.524;11.468;2023-01-10T13:25:53;7.70;;;4.00;;
32639;SDS011;19049;52.524;11.468;2023-01-10T13:28:22;7.10;;;3.43;;
32639;SDS011;19049;52.524;11.468;2023-01-10T13:30:53;6.63;;;3.60;;
32639;SDS011;19049;52.524;11.468;2023-01-10T13:33:39;9.47;;;4.17;;
32639;SDS011;19049;52.524;11.468;2023-01-10T13:36:22;10.67;;;4.87;;
32639;SDS011;19049;52.524;11.468;2023-01-10T13:38:59;8.50;;;4.33;;
32639;SDS011;19049;52.524;11.468;2023-01-10T14:00:45;7.30;;;3.50;;
32639;SDS011;19049;52.524;11.468;2023-01-10T14:06:00;6.93;;;3.50;;
32639;SDS011;19049;52.524;11.468;2023-01-10T14:08:33;9.20;;;3.60;;
32639;SDS011;19049;52.524;11.468;2023-01-10T14:16:57;7.13;;;3.27;;
32639;SDS011;19049;52.524;11.468;2023-01-10T14:19:35;9.07;;;3.40;;
32639;SDS011;19049;52.524;11.468;2023-01-10T14:22:03;7.47;;;3.20;;
32639;SDS011;19049;52.524;11.468;2023-01-10T14:24:39;5.97;;;3.20;;
32639;SDS011;19049;52.524;11.468;2023-01-10T14:30:22;3.87;;;2.60;;
32639;SDS011;19049;52.524;11.468;2023-01-10T14:36:04;7.70;;;3.50;;
32639;SDS011;19049;52.524;11.468;2023-01-10T14:38:34;7.80;;;3.13;;
32639;SDS011;19049;52.524;11.468;2023-01-10T14:41:04;5.57;;;3.03;;
32639;SDS011;19049;52.524;11.468;2023-01-10T14:43:41;5.50;;;3.20;;
32639;SDS011;19049;52.524;11.468;2023-01-10T14:46:16;8.07;;;3.07;;
32639;SDS011;19049;52.524;11.468;2023-01-10T14:48:50;6.00;;;2.90;;
32639;SDS011;19049;52.524;11.468;2023-01-10T14:51:24;7.57;;;2.80;;
32639;SDS011;19049;52.524;11.468;2023-01-10T14:56:21;6.03;;;2.77;;
32639;SDS011;19049;52.524;11.468;2023-01-10T14:58:49;7.00;;;3.23;;
32639;SDS011;19049;52.524;11.468;2023-01-10T15:01:24;8.80;;;2.90;;
32639;SDS011;19049;52.524;11.468;2023-01-10T15:03:52;6.83;;;2.97;;
32639;SDS011;19049;52.524;11.468;2023-01-10T15:06:19;4.93;;;2.93;;
32639;SDS011;19049;52.524;11.468;2023-01-10T15:08:59;5.43;;;2.63;;
32639;SDS011;19049;52.524;11.468;2023-01-10T15:11:25;7.80;;;2.90;;
32639;SDS011;19049;52.524;11.468;2023-01-10T15:13:54;6.80;;;3.20;;
32639;SDS011;19049;52.524;11.468;2023-01-10T15:16:24;4.53;;;2.30;;
32639;SDS011;19049;52.524;11.468;2023-01-10T15:18:52;4.40;;;2.33;;
32639;SDS011;19049;52.524;11.468;2023-01-10T15:21:20;8.10;;;3.20;;
32639;SDS011;19049;52.524;11.468;2023-01-10T15:23:48;6.70;;;2.97;;
32639;SDS011;19049;52.524;11.468;2023-01-10T15:26:19;7.80;;;2.73;;
32639;SDS011;19049;52.524;11.468;2023-01-10T15:31:42;4.77;;;2.70;;
32639;SDS011;19049;52.524;11.468;2023-01-10T15:34:09;4.57;;;2.57;;
32639;SDS011;19049;52.524;11.468;2023-01-10T15:36:47;8.30;;;2.57;;
32639;SDS011;19049;52.524;11.468;2023-01-10T15:39:24;8.63;;;2.90;;
32639;SDS011;19049;52.524;11.468;2023-01-10T15:41:54;7.70;;;3.03;;
32639;SDS011;19049;52.524;11.468;2023-01-10T15:44:35;4.57;;;2.70;;
32639;SDS011;19049;52.524;11.468;2023-01-10T15:47:03;6.83;;;2.97;;
32639;SDS011;19049;52.524;11.468;2023-01-10T15:49:30;6.90;;;2.73;;
32639;SDS011;19049;52.524;11.468;2023-01-10T15:52:18;7.57;;;3.13;;
32639;SDS011;19049;52.524;11.468;2023-01-10T15:54:47;5.70;;;2.57;;
32639;SDS011;19049;52.524;11.468;2023-01-10T15:57:30;3.90;;;2.40;;
32639;SDS011;19049;52.524;11.468;2023-01-10T15:59:57;5.83;;;2.63;;
32639;SDS011;19049;52.524;11.468;2023-01-10T16:02:24;5.40;;;2.20;;
32639;SDS011;19049;52.524;11.468;2023-01-10T16:04:55;7.50;;;2.73;;
32639;SDS011;19049;52.524;11.468;2023-01-10T16:07:32;7.10;;;2.83;;
32639;SDS011;19049;52.524;11.468;2023-01-10T16:10:06;4.47;;;2.33;;
32639;SDS011;19049;52.524;11.468;2023-01-10T16:12:56;5.20;;;2.20;;
32639;SDS011;19049;52.524;11.468;2023-01-10T16:15:55;5.23;;;2.47;;
32639;SDS011;19049;52.524;11.468;2023-01-10T16:18:22;6.50;;;2.40;;
32639;SDS011;19049;52.524;11.468;2023-01-10T16:20:49;5.27;;;2.50;;
32639;SDS011;19049;52.524;11.468;2023-01-10T16:23:24;5.00;;;2.43;;
32639;SDS011;19049;52.524;11.468;2023-01-10T16:25:57;5.57;;;2.53;;
32639;SDS011;19049;52.524;11.468;2023-01-10T16:28:25;4.30;;;2.30;;
32639;SDS011;19049;52.524;11.468;2023-01-10T16:30:54;4.50;;;1.90;;
32639;SDS011;19049;52.524;11.468;2023-01-10T16:33:23;3.80;;;2.27;;
32639;SDS011;19049;52.524;11.468;2023-01-10T16:36:17;3.80;;;2.20;;
32639;SDS011;19049;52.524;11.468;2023-01-10T16:38:44;4.40;;;2.07;;
32639;SDS011;19049;52.524;11.468;2023-01-10T16:41:11;3.20;;;1.90;;
32639;SDS011;19049;52.524;11.468;2023-01-10T16:43:56;4.83;;;2.20;;
32639;SDS011;19049;52.524;11.468;2023-01-10T16:46:24;5.67;;;2.23;;
32639;SDS011;19049;52.524;11.468;2023-01-10T16:48:57;8.90;;;2.77;;
32639;SDS011;19049;52.524;11.468;2023-01-10T16:51:26;4.47;;;2.30;;
32639;SDS011;19049;52.524;11.468;2023-01-10T16:53:56;5.27;;;2.40;;
32639;SDS011;19049;52.524;11.468;2023-01-10T16:56:27;4.17;;;2.33;;
32639;SDS011;19049;52.524;11.468;2023-01-10T16:58:54;4.03;;;2.23;;
32639;SDS011;19049;52.524;11.468;2023-01-10T17:01:21;5.07;;;2.20;;
32639;SDS011;19049;52.524;11.468;2023-01-10T17:03:58;5.30;;;2.57;;
32639;SDS011;19049;52.524;11.468;2023-01-10T17:06:24;4.23;;;2.30;;
32639;SDS011;19049;52.524;11.468;2023-01-10T17:08:49;3.60;;;2.10;;
32639;SDS011;19049;52.524;11.468;2023-01-10T17:11:16;3.67;;;2.10;;
32639;SDS011;19049;52.524;11.468;2023-01-10T17:14:03;2.67;;;1.93;;
32639;SDS011;19049;52.524;11.468;2023-01-10T17:16:31;3.80;;;2.23;;
32639;SDS011;19049;52.524;11.468;2023-01-10T17:19:01;4.20;;;2.10;;
32639;SDS011;19049;52.524;11.468;2023-01-10T17:21:29;3.37;;;1.97;;
32639;SDS011;19049;52.524;11.468;2023-01-10T17:23:55;5.73;;;1.90;;
32639;SDS011;19049;52.524;11.468;2023-01-10T17:26:20;7.97;;;2.10;;
32639;SDS011;19049;52.524;11.468;2023-01-10T17:28:49;6.23;;;2.10;;
32639;SDS011;19049;52.524;11.468;2023-01-10T17:31:15;5.17;;;2.13;;
32639;SDS011;19049;52.524;11.468;2023-01-10T17:33:42;4.30;;;2.00;;
32639;SDS011;19049;52.524;11.468;2023-01-10T17:36:15;4.43;;;1.97;;
32639;SDS011;19049;52.524;11.468;2023-01-10T17:39:06;2.90;;;1.73;;
32639;SDS011;19049;52.524;11.468;2023-01-10T17:41:32;4.10;;;1.90;;
32639;SDS011;19049;52.524;11.468;2023-01-10T17:43:58;4.63;;;1.93;;
32639;SDS011;19049;52.524;11.468;2023-01-10T17:46:23;4.23;;;1.80;;
32639;SDS011;19049;52.524;11.468;2023-01-10T17:48:49;3.83;;;1.90;;
32639;SDS011;19049;52.524;11.468;2023-01-10T17:51:30;4.57;;;2.10;;
32639;SDS011;19049;52.524;11.468;2023-01-10T17:54:03;3.07;;;2.07;;
32639;SDS011;19049;52.524;11.468;2023-01-10T17:56:38;2.57;;;1.90;;
32639;SDS011;19049;52.524;11.468;2023-01-10T17:59:22;4.30;;;1.90;;
32639;SDS011;19049;52.524;11.468;2023-01-10T18:01:50;4.83;;;1.90;;
32639;SDS011;19049;52.524;11.468;2023-01-10T18:04:18;4.43;;;1.93;;